createdAt,value
2022-11-29T00:01:28.701Z,5.05
2022-11-29T00:04:30.129Z,4.82
2022-11-29T00:07:31.568Z,4.80
2022-11-29T00:10:36.847Z,4.43
2022-11-29T00:13:38.399Z,4.45
2022-11-29T00:16:41.074Z,4.47
2022-11-29T00:19:42.606Z,3.97
2022-11-29T00:22:44.048Z,4.43
2022-11-29T00:25:45.511Z,4.30
2022-11-29T00:28:46.999Z,3.77
2022-11-29T00:31:48.408Z,4.03
2022-11-29T00:34:49.781Z,3.90
2022-11-29T00:37:51.162Z,3.40
2022-11-29T00:40:52.832Z,4.00
2022-11-29T00:43:54.608Z,3.67
2022-11-29T00:46:56.022Z,3.60
2022-11-29T00:49:57.439Z,3.30
2022-11-29T00:52:58.822Z,3.40
2022-11-29T00:56:00.507Z,3.00
2022-11-29T00:59:01.934Z,3.45
2022-11-29T01:02:03.606Z,4.07
2022-11-29T01:05:05.414Z,3.60
2022-11-29T01:08:06.924Z,3.30
2022-11-29T01:11:13.062Z,3.17
2022-11-29T01:14:14.528Z,3.63
2022-11-29T01:17:15.978Z,3.50
2022-11-29T01:20:17.470Z,3.63
2022-11-29T01:23:18.874Z,3.50
2022-11-29T01:26:26.032Z,3.08
2022-11-29T01:29:27.407Z,3.65
2022-11-29T01:32:28.872Z,3.95
2022-11-29T01:35:30.277Z,3.37
2022-11-29T01:38:31.927Z,3.20
2022-11-29T01:41:35.355Z,3.67
2022-11-29T01:44:36.683Z,3.30
2022-11-29T01:47:43.676Z,3.08
2022-11-29T01:50:45.214Z,4.03
2022-11-29T01:53:47.007Z,3.30
2022-11-29T01:56:50.615Z,3.63
2022-11-29T01:59:58.020Z,3.25
2022-11-29T02:03:12.317Z,3.25
2022-11-29T02:06:15.688Z,3.67
2022-11-29T02:09:22.629Z,3.55
2022-11-29T02:12:45.980Z,3.33
2022-11-29T02:16:15.723Z,3.45
2022-11-29T02:19:53.291Z,3.05
2022-11-29T02:23:23.383Z,3.10
2022-11-29T02:26:43.482Z,3.45
2022-11-29T02:30:29.088Z,3.13
2022-11-29T02:33:52.256Z,2.92
2022-11-29T02:37:22.517Z,3.20
2022-11-29T02:41:01.524Z,3.63
2022-11-29T02:44:26.899Z,3.05
2022-11-29T02:47:53.906Z,2.97
2022-11-29T02:51:05.411Z,3.10
2022-11-29T02:54:20.400Z,3.20
2022-11-29T02:57:36.575Z,3.03
2022-11-29T03:00:47.981Z,2.95
2022-11-29T03:04:15.217Z,3.60
2022-11-29T03:07:28.728Z,3.15
2022-11-29T03:10:48.162Z,2.90
2022-11-29T03:14:21.798Z,2.97
2022-11-29T03:17:48.285Z,2.72
2022-11-29T03:21:05.128Z,3.38
2022-11-29T03:24:16.020Z,3.05
2022-11-29T03:27:28.465Z,3.22
2022-11-29T03:33:47.096Z,3.03
2022-11-29T03:37:19.907Z,2.85
2022-11-29T03:43:36.701Z,3.17
2022-11-29T03:46:47.739Z,2.92
2022-11-29T03:49:59.543Z,2.88
2022-11-29T03:53:12.737Z,2.75
2022-11-29T03:56:31.906Z,3.30
2022-11-29T03:59:45.587Z,2.70
2022-11-29T04:02:56.471Z,3.28
2022-11-29T04:06:18.063Z,3.10
2022-11-29T04:09:46.472Z,3.55
2022-11-29T04:13:12.670Z,3.60
2022-11-29T04:16:39.012Z,2.95
2022-11-29T04:20:18.104Z,3.28
2022-11-29T04:23:38.729Z,3.22
2022-11-29T04:27:01.673Z,2.75
2022-11-29T04:30:18.297Z,3.22
2022-11-29T04:33:32.726Z,3.28
2022-11-29T04:36:34.057Z,2.92
2022-11-29T04:39:51.542Z,4.68
2022-11-29T04:43:11.404Z,5.22
2022-11-29T04:46:54.342Z,5.00
2022-11-29T04:53:23.891Z,4.35
2022-11-29T04:56:46.503Z,4.80
2022-11-29T05:03:38.731Z,3.50
2022-11-29T05:07:02.126Z,3.90
2022-11-29T05:10:17.891Z,6.10
2022-11-29T05:13:38.915Z,4.30
2022-11-29T05:17:04.205Z,3.97
2022-11-29T05:20:27.065Z,3.72
2022-11-29T05:23:54.772Z,4.40
2022-11-29T05:27:35.226Z,5.18
2022-11-29T05:31:06.429Z,5.30
2022-11-29T05:34:34.914Z,4.80
2022-11-29T05:37:50.385Z,5.80
2022-11-29T05:41:29.265Z,5.05
2022-11-29T05:44:38.481Z,4.55
2022-11-29T05:47:48.932Z,4.65
2022-11-29T05:51:06.235Z,5.63
2022-11-29T05:54:13.801Z,5.65
2022-11-29T05:57:49.036Z,7.75
2022-11-29T06:01:27.948Z,8.88
2022-11-29T06:04:41.183Z,6.80
2022-11-29T06:08:08.051Z,6.22
2022-11-29T06:11:24.067Z,5.05
2022-11-29T06:14:47.237Z,5.15
2022-11-29T06:18:07.010Z,4.85
2022-11-29T06:21:46.252Z,5.40
2022-11-29T06:25:18.528Z,5.45
2022-11-29T06:28:45.428Z,5.30
2022-11-29T06:31:53.256Z,5.45
2022-11-29T06:35:03.539Z,6.13
2022-11-29T06:38:20.493Z,5.80
2022-11-29T06:41:23.690Z,5.57
2022-11-29T06:44:25.378Z,6.45
2022-11-29T06:47:42.470Z,6.93
2022-11-29T06:50:56.963Z,7.55
2022-11-29T06:54:36.111Z,7.57
2022-11-29T06:57:49.287Z,6.72
2022-11-29T07:01:00.869Z,6.25
2022-11-29T07:04:15.342Z,6.67
2022-11-29T07:07:22.503Z,6.40
2022-11-29T07:10:24.726Z,6.03
2022-11-29T07:13:26.396Z,5.38
2022-11-29T07:16:33.917Z,5.60
2022-11-29T07:19:53.762Z,5.10
2022-11-29T07:23:21.206Z,4.95
2022-11-29T07:26:33.920Z,5.50
2022-11-29T07:29:41.353Z,8.05
2022-11-29T07:33:21.559Z,6.63
2022-11-29T07:36:45.081Z,5.93
2022-11-29T07:40:03.358Z,8.18
2022-11-29T07:43:20.212Z,6.70
2022-11-29T07:46:21.651Z,6.55
2022-11-29T07:49:23.074Z,5.47
2022-11-29T07:52:26.867Z,6.00
2022-11-29T07:55:29.568Z,6.13
2022-11-29T07:58:31.042Z,8.02
2022-11-29T08:01:32.510Z,7.47
2022-11-29T08:04:34.054Z,7.45
2022-11-29T08:07:40.508Z,6.00
2022-11-29T08:10:41.968Z,6.60
2022-11-29T08:13:43.360Z,7.30
2022-11-29T08:16:44.780Z,7.20
2022-11-29T08:19:46.300Z,7.83
2022-11-29T08:22:58.944Z,5.67
2022-11-29T08:29:02.410Z,5.90
2022-11-29T08:32:04.215Z,5.47
2022-11-29T08:35:05.860Z,4.47
2022-11-29T08:38:07.255Z,7.00
2022-11-29T08:41:11.462Z,6.65
2022-11-29T08:44:13.044Z,6.53
2022-11-29T08:47:32.687Z,5.25
2022-11-29T08:50:34.241Z,5.40
2022-11-29T08:53:41.461Z,6.17
2022-11-29T08:57:30.965Z,5.00
2022-11-29T09:00:05.386Z,5.50
2022-11-29T09:03:26.250Z,5.13
2022-11-29T09:06:33.572Z,4.03
2022-11-29T09:09:34.965Z,4.95
2022-11-29T09:12:37.210Z,4.63
2022-11-29T09:15:39.478Z,5.93
2022-11-29T09:18:43.172Z,4.50
2022-11-29T09:21:47.496Z,4.70
2022-11-29T09:24:48.987Z,4.77
2022-11-29T09:27:50.397Z,5.00
2022-11-29T09:30:51.771Z,5.00
2022-11-29T09:33:54.316Z,6.07
2022-11-29T09:36:55.788Z,6.07
2022-11-29T09:39:57.221Z,7.70
2022-11-29T09:43:04.816Z,6.70
2022-11-29T09:46:18.176Z,9.30
2022-11-29T09:49:48.291Z,7.25
2022-11-29T09:53:07.575Z,6.30
2022-11-29T09:56:21.951Z,6.10
2022-11-29T09:59:29.031Z,6.03
2022-11-29T10:02:45.216Z,5.50
2022-11-29T10:05:52.298Z,5.90
2022-11-29T10:08:55.971Z,5.60
2022-11-29T10:12:07.225Z,5.72
2022-11-29T10:15:14.159Z,9.10
2022-11-29T10:18:38.396Z,6.22
2022-11-29T10:21:43.178Z,6.72
2022-11-29T10:24:51.670Z,6.43
2022-11-29T10:27:54.344Z,7.18
2022-11-29T10:30:58.883Z,8.68
2022-11-29T10:34:07.964Z,8.55
2022-11-29T10:37:21.840Z,8.07
2022-11-29T10:40:33.437Z,9.50
2022-11-29T10:43:37.236Z,9.10
2022-11-29T10:46:38.800Z,8.77
2022-11-29T10:49:40.342Z,9.40
2022-11-29T10:52:41.783Z,10.70
2022-11-29T10:55:45.546Z,11.00
2022-11-29T10:59:03.186Z,11.30
2022-11-29T11:02:06.565Z,10.73
2022-11-29T11:05:18.655Z,11.88
2022-11-29T11:08:20.402Z,12.55
2022-11-29T11:11:31.228Z,12.63
2022-11-29T11:14:37.464Z,12.18
2022-11-29T11:17:42.084Z,14.05
2022-11-29T11:20:51.285Z,13.85
2022-11-29T11:23:59.493Z,12.02
2022-11-29T11:27:01.499Z,11.80
2022-11-29T11:30:06.163Z,12.07
2022-11-29T11:33:20.049Z,12.98
2022-11-29T11:36:23.063Z,12.27
2022-11-29T11:39:27.809Z,13.23
2022-11-29T11:42:38.265Z,12.13
2022-11-29T11:45:39.708Z,12.82
2022-11-29T11:48:42.359Z,13.70
2022-11-29T11:51:43.978Z,13.35
2022-11-29T11:54:49.221Z,13.82
2022-11-29T11:58:12.031Z,13.55
2022-11-29T12:01:17.244Z,13.27
2022-11-29T12:04:25.040Z,13.27
2022-11-29T12:08:06.719Z,13.38
2022-11-29T12:11:07.699Z,13.55
2022-11-29T12:14:20.300Z,12.90
2022-11-29T12:20:38.656Z,16.40
2022-11-29T12:23:59.850Z,13.43
2022-11-29T12:27:05.112Z,13.25
2022-11-29T12:30:13.593Z,12.18
2022-11-29T12:33:24.011Z,12.98
2022-11-29T12:36:46.761Z,12.57
2022-11-29T12:40:03.533Z,11.70
2022-11-29T12:43:24.958Z,11.85
2022-11-29T12:46:29.080Z,12.48
2022-11-29T12:49:41.169Z,10.82
2022-11-29T12:53:01.498Z,9.73
2022-11-29T12:56:13.568Z,9.82
2022-11-29T12:59:33.227Z,10.10
2022-11-29T13:02:47.245Z,8.52
2022-11-29T13:05:59.306Z,10.68
2022-11-29T13:09:17.954Z,10.00
2022-11-29T13:12:33.004Z,9.07
2022-11-29T13:15:57.884Z,10.68
2022-11-29T13:19:17.828Z,9.25
2022-11-29T13:22:44.150Z,9.27
2022-11-29T13:25:50.861Z,8.93
2022-11-29T13:28:53.493Z,9.90
2022-11-29T13:31:55.074Z,9.10
2022-11-29T13:35:01.796Z,9.77
2022-11-29T13:38:29.528Z,10.55
2022-11-29T13:41:37.672Z,10.10
2022-11-29T13:44:58.901Z,9.82
2022-11-29T13:48:01.901Z,9.45
2022-11-29T13:51:30.296Z,9.63
2022-11-29T13:54:33.703Z,13.13
2022-11-29T13:58:14.453Z,12.32
2022-11-29T14:01:14.340Z,11.68
2022-11-29T14:04:28.081Z,8.70
2022-11-29T14:07:29.527Z,7.90
2022-11-29T14:10:32.709Z,8.43
2022-11-29T14:13:54.961Z,8.77
2022-11-29T14:17:01.672Z,9.15
2022-11-29T14:20:25.283Z,8.70
2022-11-29T14:23:33.524Z,8.77
2022-11-29T14:26:35.103Z,8.50
2022-11-29T14:30:02.755Z,9.30
2022-11-29T14:33:18.502Z,8.50
2022-11-29T14:36:43.597Z,7.80
2022-11-29T14:39:52.649Z,9.52
2022-11-29T14:42:54.351Z,8.63
2022-11-29T14:46:13.777Z,9.48
2022-11-29T14:49:23.553Z,9.43
2022-11-29T14:52:29.151Z,9.18
2022-11-29T14:55:35.246Z,8.85
2022-11-29T14:58:36.733Z,8.98
2022-11-29T15:01:43.882Z,10.23
2022-11-29T15:04:47.892Z,9.63
2022-11-29T15:08:06.466Z,9.73
2022-11-29T15:11:26.069Z,10.80
2022-11-29T15:14:53.888Z,10.75
2022-11-29T15:18:03.384Z,11.77
2022-11-29T15:21:32.543Z,13.27
2022-11-29T15:25:07.103Z,12.50
2022-11-29T15:28:22.569Z,12.50
2022-11-29T15:31:24.250Z,12.98
2022-11-29T15:34:39.729Z,14.45
2022-11-29T15:37:44.541Z,13.85
2022-11-29T15:40:52.802Z,13.75
2022-11-29T15:43:59.802Z,13.63
2022-11-29T15:47:23.675Z,13.68
2022-11-29T15:50:34.138Z,12.02
2022-11-29T15:53:40.975Z,13.57
2022-11-29T15:56:48.706Z,12.77
2022-11-29T15:59:55.251Z,13.43
2022-11-29T16:03:02.029Z,12.18
2022-11-29T16:06:08.978Z,12.45
2022-11-29T16:09:22.732Z,11.57
2022-11-29T16:12:24.525Z,11.60
2022-11-29T16:15:32.719Z,12.02
2022-11-29T16:18:34.733Z,11.15
2022-11-29T16:21:36.290Z,10.65
2022-11-29T16:24:40.419Z,11.97
2022-11-29T16:27:42.741Z,12.32
2022-11-29T16:33:47.443Z,12.77
2022-11-29T16:37:01.187Z,12.63
2022-11-29T16:40:03.094Z,13.63
2022-11-29T16:43:04.558Z,13.43
2022-11-29T16:46:30.074Z,13.50
2022-11-29T16:49:34.964Z,13.20
2022-11-29T16:52:36.396Z,13.18
2022-11-29T16:55:37.783Z,13.70
2022-11-29T16:59:17.068Z,14.75
2022-11-29T17:02:02.242Z,13.88
2022-11-29T17:05:03.904Z,14.30
2022-11-29T17:08:05.603Z,13.97
2022-11-29T17:11:07.101Z,15.32
2022-11-29T17:14:09.453Z,14.80
2022-11-29T17:17:15.654Z,15.80
2022-11-29T17:20:17.180Z,16.38
2022-11-29T17:23:18.631Z,16.43
2022-11-29T17:26:21.880Z,14.15
2022-11-29T17:29:23.598Z,15.23
2022-11-29T17:32:26.859Z,16.00
2022-11-29T17:35:28.629Z,14.52
2022-11-29T17:38:30.045Z,15.13
2022-11-29T17:41:32.654Z,14.43
2022-11-29T17:44:34.247Z,14.07
2022-11-29T17:47:35.684Z,15.13
2022-11-29T17:50:38.186Z,15.87
2022-11-29T17:53:39.615Z,15.35
2022-11-29T17:56:41.033Z,16.43
2022-11-29T17:59:42.474Z,17.38
2022-11-29T18:02:44.053Z,15.40
2022-11-29T18:05:45.511Z,16.75
2022-11-29T18:08:49.292Z,19.92
2022-11-29T18:11:50.888Z,18.48
2022-11-29T18:14:52.330Z,17.35
2022-11-29T18:17:53.736Z,21.83
2022-11-29T18:21:00.106Z,22.02
2022-11-29T18:24:03.675Z,20.65
2022-11-29T18:27:05.209Z,19.95
2022-11-29T18:30:07.415Z,20.37
2022-11-29T18:33:08.825Z,19.98
2022-11-29T18:36:13.282Z,19.42
2022-11-29T18:39:17.365Z,19.67
2022-11-29T18:42:18.800Z,21.15
2022-11-29T18:45:20.253Z,21.57
2022-11-29T18:48:21.766Z,19.77
2022-11-29T18:51:23.143Z,21.03
2022-11-29T18:54:24.632Z,19.33
2022-11-29T18:57:26.046Z,20.43
2022-11-29T19:00:27.469Z,18.23
2022-11-29T19:03:29.050Z,17.27
2022-11-29T19:06:39.295Z,16.90
2022-11-29T19:09:41.516Z,18.02
2022-11-29T19:12:42.981Z,20.47
2022-11-29T19:15:51.395Z,20.47
2022-11-29T19:18:55.409Z,19.90
2022-11-29T19:21:56.824Z,19.20
2022-11-29T19:24:58.284Z,18.80
2022-11-29T19:27:59.670Z,20.00
2022-11-29T19:31:01.135Z,20.23
2022-11-29T19:34:02.578Z,19.23
2022-11-29T19:37:04.396Z,22.50
2022-11-29T19:40:06.606Z,20.48
2022-11-29T19:43:08.042Z,20.88
2022-11-29T19:46:17.611Z,22.08
2022-11-29T19:49:19.030Z,23.45
2022-11-29T19:52:20.455Z,22.13
2022-11-29T19:58:25.087Z,19.60
2022-11-29T20:07:40.768Z,17.73
2022-11-29T20:10:42.206Z,20.20
2022-11-29T20:13:45.676Z,21.30
2022-11-29T20:16:47.107Z,19.83
2022-11-29T20:19:48.849Z,19.93
2022-11-29T20:22:52.323Z,19.40
2022-11-29T20:25:55.238Z,20.30
2022-11-29T20:28:56.709Z,20.13
2022-11-29T20:31:58.378Z,21.03
2022-11-29T20:35:02.319Z,21.17
2022-11-29T20:38:11.634Z,19.05
2022-11-29T20:41:21.777Z,19.90
2022-11-29T20:44:54.069Z,21.10
2022-11-29T20:48:04.307Z,19.77
2022-11-29T20:51:05.975Z,20.60
2022-11-29T20:54:10.580Z,20.08
2022-11-29T20:57:12.088Z,20.52
2022-11-29T21:00:15.527Z,19.98
2022-11-29T21:03:18.613Z,19.00
2022-11-29T21:06:20.491Z,19.75
2022-11-29T21:09:22.228Z,18.98
2022-11-29T21:12:24.047Z,19.73
2022-11-29T21:15:25.870Z,20.05
2022-11-29T21:18:29.041Z,19.25
2022-11-29T21:21:40.131Z,19.20
2022-11-29T21:24:53.194Z,21.23
2022-11-29T21:27:55.165Z,20.38
2022-11-29T21:30:56.979Z,20.10
2022-11-29T21:33:58.792Z,21.23
2022-11-29T21:37:00.655Z,19.98
2022-11-29T21:40:02.088Z,21.10
2022-11-29T21:43:03.508Z,21.33
2022-11-29T21:46:05.059Z,20.58
2022-11-29T21:49:06.658Z,20.55
2022-11-29T21:52:08.066Z,21.63
2022-11-29T21:55:09.768Z,22.55
2022-11-29T21:58:11.161Z,21.90
2022-11-29T22:01:16.861Z,21.52
2022-11-29T22:04:18.629Z,22.10
2022-11-29T22:07:20.076Z,22.58
2022-11-29T22:10:21.508Z,21.60
2022-11-29T22:13:23.017Z,21.60
2022-11-29T22:16:25.197Z,21.73
2022-11-29T22:19:34.620Z,19.67
2022-11-29T22:22:36.055Z,21.15
2022-11-29T22:25:37.478Z,20.80
2022-11-29T22:28:38.863Z,21.73
2022-11-29T22:31:45.359Z,23.13
2022-11-29T22:34:47.012Z,21.23
2022-11-29T22:37:48.556Z,21.38
2022-11-29T22:40:49.934Z,21.30
2022-11-29T22:43:51.589Z,18.63
2022-11-29T22:46:53.224Z,20.48
2022-11-29T22:49:54.770Z,19.13
2022-11-29T22:52:56.169Z,19.10
2022-11-29T22:56:02.428Z,17.50
2022-11-29T22:59:04.665Z,19.55
2022-11-29T23:02:06.100Z,17.48
2022-11-29T23:05:08.021Z,18.57
2022-11-29T23:08:09.440Z,18.27
2022-11-29T23:11:17.508Z,17.15
2022-11-29T23:14:19.779Z,16.58
2022-11-29T23:20:22.673Z,16.35
2022-11-29T23:23:24.243Z,16.77
2022-11-29T23:26:36.417Z,18.05
2022-11-29T23:29:37.836Z,16.70
2022-11-29T23:32:40.764Z,16.60
2022-11-29T23:35:42.303Z,17.57
2022-11-29T23:38:44.026Z,16.45
2022-11-29T23:41:45.449Z,16.63
2022-11-29T23:44:47.105Z,17.58
2022-11-29T23:47:48.710Z,17.60
2022-11-29T23:50:50.124Z,17.27
2022-11-29T23:53:53.063Z,17.70
2022-11-29T23:56:54.470Z,16.75
2022-11-29T23:59:55.862Z,16.70
